createdAt,value
2023-04-02T00:01:01.202Z,7.2
2023-04-02T00:02:14.234Z,7.2
2023-04-02T00:03:27.367Z,7
2023-04-02T00:04:40.190Z,7
2023-04-02T00:05:53.209Z,7
2023-04-02T00:07:06.199Z,7
2023-04-02T00:08:19.181Z,7
2023-04-02T00:09:32.536Z,7
2023-04-02T00:10:45.036Z,7
2023-04-02T00:11:58.202Z,7
2023-04-02T00:13:11.165Z,7
2023-04-02T00:14:24.025Z,7
2023-04-02T00:15:37.212Z,7
2023-04-02T00:16:50.968Z,7
2023-04-02T00:18:03.190Z,7
2023-04-02T00:19:15.931Z,7
2023-04-02T00:20:29.201Z,7
2023-04-02T00:21:42.634Z,7.1
2023-04-02T00:22:55.086Z,7.1
2023-04-02T00:24:08.203Z,7
2023-04-02T00:25:21.367Z,7.1
2023-04-02T00:26:34.192Z,7.1
2023-04-02T00:27:47.233Z,7.1
2023-04-02T00:29:00.715Z,7.1
2023-04-02T00:30:13.200Z,7.1
2023-04-02T00:31:26.225Z,7.1
2023-04-02T00:32:39.215Z,7.1
2023-04-02T00:33:52.395Z,6.9
2023-04-02T00:35:05.400Z,6.9
2023-04-02T00:36:18.399Z,6.9
2023-04-02T00:37:31.224Z,6.9
2023-04-02T00:38:45.540Z,6.9
2023-04-02T00:39:57.209Z,6.9
2023-04-02T00:41:10.195Z,6.9
2023-04-02T00:42:23.240Z,6.8
2023-04-02T00:43:36.250Z,6.8
2023-04-02T00:44:49.244Z,6.8
2023-04-02T00:46:02.283Z,6.8
2023-04-02T00:47:15.416Z,6.8
2023-04-02T00:48:28.408Z,6.8
2023-04-02T00:49:41.218Z,6.7
2023-04-02T00:50:54.239Z,6.6
2023-04-02T00:52:07.092Z,6.6
2023-04-02T00:53:20.234Z,6.6
2023-04-02T00:54:34.004Z,6.6
2023-04-02T00:55:46.252Z,6.7
2023-04-02T00:56:59.262Z,6.7
2023-04-02T00:58:12.106Z,6.7
2023-04-02T00:59:25.357Z,6.7
2023-04-02T01:00:38.372Z,6.5
2023-04-02T01:01:51.462Z,6.5
2023-04-02T01:03:04.359Z,6.5
2023-04-02T01:04:17.238Z,6.5
2023-04-02T01:05:30.261Z,6.5
2023-04-02T01:06:43.252Z,6.5
2023-04-02T01:07:56.280Z,6.5
2023-04-02T01:10:22.246Z,6.5
2023-04-02T01:11:35.233Z,6.5
2023-04-02T01:12:48.241Z,6.5
2023-04-02T01:14:01.255Z,6.5
2023-04-02T01:15:13.920Z,6.4
2023-04-02T01:16:27.288Z,6.4
2023-04-02T01:17:40.296Z,6.4
2023-04-02T01:18:53.280Z,6.4
2023-04-02T01:20:06.417Z,6.4
2023-04-02T01:21:19.229Z,6.4
2023-04-02T01:22:32.273Z,6.4
2023-04-02T01:23:45.431Z,6.4
2023-04-02T01:24:58.296Z,6.4
2023-04-02T01:26:11.246Z,6.4
2023-04-02T01:27:24.266Z,6.4
2023-04-02T01:28:37.280Z,6.4
2023-04-02T01:29:50.280Z,6.2
2023-04-02T01:31:03.338Z,6.2
2023-04-02T01:32:16.281Z,6.2
2023-04-02T01:33:29.266Z,6.2
2023-04-02T01:34:42.260Z,6.2
2023-04-02T01:35:55.282Z,6.3
2023-04-02T01:37:08.273Z,6.3
2023-04-02T01:38:21.478Z,6.3
2023-04-02T01:39:34.474Z,6.3
2023-04-02T01:40:47.270Z,6.3
2023-04-02T01:42:00.311Z,6.3
2023-04-02T01:43:13.284Z,6.3
2023-04-02T01:44:26.268Z,6.3
2023-04-02T01:45:39.268Z,6.1
2023-04-02T01:46:52.399Z,6.1
2023-04-02T01:48:05.296Z,6.1
2023-04-02T01:49:18.226Z,6.1
2023-04-02T01:50:31.274Z,6.1
2023-04-02T01:51:44.128Z,6.1
2023-04-02T01:52:57.265Z,6.1
2023-04-02T01:54:10.282Z,6.1
2023-04-02T01:55:23.249Z,6.1
2023-04-02T01:56:36.274Z,6.1
2023-04-02T01:57:49.279Z,6.1
2023-04-02T01:59:02.285Z,5.9
2023-04-02T02:00:15.278Z,5.9
2023-04-02T02:01:28.497Z,5.9
2023-04-02T02:02:41.341Z,5.9
2023-04-02T02:03:55.147Z,5.9
2023-04-02T02:05:07.247Z,5.9
2023-04-02T02:06:20.283Z,5.9
2023-04-02T02:07:33.310Z,5.9
2023-04-02T02:08:46.363Z,5.9
2023-04-02T02:09:59.104Z,5.9
2023-04-02T02:11:12.875Z,5.9
2023-04-02T02:12:25.278Z,5.9
2023-04-02T02:13:38.810Z,5.8
2023-04-02T02:14:51.286Z,5.9
2023-04-02T02:16:04.290Z,5.9
2023-04-02T02:17:17.153Z,5.9
2023-04-02T02:18:30.283Z,5.9
2023-04-02T02:19:43.275Z,5.9
2023-04-02T02:20:56.308Z,5.9
2023-04-02T02:22:09.160Z,5.9
2023-04-02T02:23:22.308Z,5.9
2023-04-02T02:24:35.252Z,5.8
2023-04-02T02:25:48.296Z,5.7
2023-04-02T02:27:01.308Z,5.7
2023-04-02T02:28:14.324Z,5.7
2023-04-02T02:29:27.292Z,5.7
2023-04-02T02:30:40.342Z,5.7
2023-04-02T02:31:53.302Z,5.7
2023-04-02T02:33:06.321Z,5.7
2023-04-02T02:34:19.286Z,5.7
2023-04-02T02:35:32.306Z,5.7
2023-04-02T02:36:45.293Z,5.7
2023-04-02T02:37:58.301Z,5.7
2023-04-02T02:39:11.317Z,5.7
2023-04-02T02:40:24.319Z,5.7
2023-04-02T02:41:37.305Z,5.7
2023-04-02T02:42:50.313Z,5.7
2023-04-02T02:44:03.485Z,5.7
2023-04-02T02:45:16.330Z,5.7
2023-04-02T02:46:29.397Z,5.7
2023-04-02T02:47:42.283Z,5.6
2023-04-02T02:48:55.294Z,5.6
2023-04-02T02:50:08.001Z,5.6
2023-04-02T02:51:21.276Z,5.6
2023-04-02T02:52:34.343Z,5.6
2023-04-02T02:53:48.264Z,5.6
2023-04-02T02:55:00.298Z,5.6
2023-04-02T02:56:13.376Z,5.6
2023-04-02T02:57:26.318Z,5.6
2023-04-02T02:58:39.326Z,5.6
2023-04-02T02:59:52.312Z,5.6
2023-04-02T03:01:05.325Z,5.6
2023-04-02T03:02:18.342Z,5.6
2023-04-02T03:03:31.505Z,5.6
2023-04-02T03:04:44.264Z,5.6
2023-04-02T03:05:57.285Z,5.6
2023-04-02T03:07:10.281Z,5.6
2023-04-02T03:08:23.304Z,5.6
2023-04-02T03:09:36.451Z,5.6
2023-04-02T03:10:49.279Z,5.6
2023-04-02T03:12:02.446Z,5.6
2023-04-02T03:13:15.319Z,5.6
2023-04-02T03:14:28.336Z,5.5
2023-04-02T03:15:41.466Z,5.5
2023-04-02T03:16:54.347Z,5.5
2023-04-02T03:18:07.382Z,5.5
2023-04-02T03:19:20.354Z,5.5
2023-04-02T03:20:33.422Z,5.5
2023-04-02T03:21:46.400Z,5.5
2023-04-02T03:22:59.360Z,5.5
2023-04-02T03:24:12.375Z,5.5
2023-04-02T03:25:25.491Z,5.5
2023-04-02T03:26:38.518Z,5.5
2023-04-02T03:27:51.375Z,5.5
2023-04-02T03:29:04.381Z,5.5
2023-04-02T03:30:17.355Z,5.5
2023-04-02T03:31:30.247Z,5.5
2023-04-02T03:32:43.441Z,5.5
2023-04-02T03:33:56.554Z,5.5
2023-04-02T03:35:09.366Z,5.5
2023-04-02T03:36:22.436Z,5.5
2023-04-02T03:37:35.321Z,5.3
2023-04-02T03:38:48.326Z,5.3
2023-04-02T03:40:01.351Z,5.3
2023-04-02T03:41:14.336Z,5.3
2023-04-02T03:42:27.327Z,5.3
2023-04-02T03:43:40.300Z,5.3
2023-04-02T03:44:53.353Z,5.3
2023-04-02T03:46:06.339Z,5.3
2023-04-02T03:47:19.338Z,5.3
2023-04-02T03:48:32.360Z,5.3
2023-04-02T03:49:45.330Z,5.3
2023-04-02T03:50:58.340Z,5.3
2023-04-02T03:52:11.360Z,5.2
2023-04-02T03:53:24.365Z,5.2
2023-04-02T03:54:37.525Z,5.2
2023-04-02T03:55:50.362Z,5.2
2023-04-02T03:57:04.248Z,5.2
2023-04-02T03:58:16.363Z,5.2
2023-04-02T03:59:29.376Z,5.2
2023-04-02T04:00:42.313Z,5.2
2023-04-02T04:01:55.357Z,5.2
2023-04-02T04:03:08.391Z,5.3
2023-04-02T04:04:21.370Z,5.1
2023-04-02T04:05:34.434Z,5.1
2023-04-02T04:06:47.341Z,5.1
2023-04-02T04:08:00.375Z,5.1
2023-04-02T04:09:13.366Z,5.1
2023-04-02T04:10:26.352Z,5.1
2023-04-02T04:11:39.375Z,5.1
2023-04-02T04:12:52.511Z,5.1
2023-04-02T04:14:05.535Z,5.1
2023-04-02T04:15:18.300Z,5.1
2023-04-02T04:16:31.417Z,5.1
2023-04-02T04:17:44.374Z,5.1
2023-04-02T04:18:57.344Z,5.1
2023-04-02T04:20:10.320Z,5.1
2023-04-02T04:21:23.387Z,5
2023-04-02T04:22:36.465Z,4.9
2023-04-02T04:23:49.374Z,4.9
2023-04-02T04:25:02.385Z,4.9
2023-04-02T04:26:15.375Z,4.9
2023-04-02T04:27:28.486Z,4.9
2023-04-02T04:28:41.385Z,4.9
2023-04-02T04:29:54.374Z,4.9
2023-04-02T04:31:07.376Z,4.9
2023-04-02T04:32:20.371Z,4.9
2023-04-02T04:33:33.384Z,4.9
2023-04-02T04:34:46.388Z,4.9
2023-04-02T04:35:59.502Z,4.9
2023-04-02T04:37:12.382Z,4.9
2023-04-02T04:38:26.163Z,4.9
2023-04-02T04:39:38.413Z,4.9
2023-04-02T04:40:51.424Z,4.9
2023-04-02T04:42:04.397Z,4.9
2023-04-02T04:43:17.375Z,4.9
2023-04-02T04:44:30.397Z,4.9
2023-04-02T04:45:43.430Z,4.9
2023-04-02T04:46:56.412Z,4.9
2023-04-02T04:48:09.579Z,4.9
2023-04-02T04:49:22.560Z,4.9
2023-04-02T04:50:35.396Z,4.9
2023-04-02T04:51:48.401Z,4.9
2023-04-02T04:53:01.122Z,4.9
2023-04-02T04:54:14.395Z,4.9
2023-04-02T04:55:27.481Z,4.9
2023-04-02T04:56:40.389Z,4.9
2023-04-02T04:57:53.480Z,4.9
2023-04-02T04:59:06.421Z,4.9
2023-04-02T05:00:19.176Z,4.9
2023-04-02T05:01:32.125Z,4.9
2023-04-02T05:02:45.061Z,4.8
2023-04-02T05:03:58.058Z,4.8
2023-04-02T05:05:11.002Z,4.8
2023-04-02T05:06:24.061Z,4.8
2023-04-02T05:07:37.059Z,4.8
2023-04-02T05:08:50.225Z,4.9
2023-04-02T05:10:03.197Z,4.9
2023-04-02T05:11:16.056Z,4.9
2023-04-02T05:12:29.063Z,4.9
2023-04-02T05:13:41.933Z,4.8
2023-04-02T05:14:55.048Z,4.7
2023-04-02T05:16:08.189Z,4.7
2023-04-02T05:17:21.071Z,4.7
2023-04-02T05:18:34.063Z,4.7
2023-04-02T05:19:47.187Z,4.7
2023-04-02T05:21:00.114Z,4.7
2023-04-02T05:22:13.123Z,4.7
2023-04-02T05:23:26.144Z,4.7
2023-04-02T05:24:39.027Z,4.7
2023-04-02T05:25:52.029Z,4.7
2023-04-02T05:27:05.086Z,4.6
2023-04-02T05:28:18.070Z,4.6
2023-04-02T05:29:31.108Z,4.6
2023-04-02T05:30:44.063Z,4.6
2023-04-02T05:31:57.037Z,4.6
2023-04-02T05:33:10.079Z,4.6
2023-04-02T05:34:23.097Z,4.6
2023-04-02T05:35:36.302Z,4.6
2023-04-02T05:36:49.361Z,4.6
2023-04-02T05:38:02.259Z,4.6
2023-04-02T05:39:15.062Z,4.6
2023-04-02T05:40:28.104Z,4.4
2023-04-02T05:41:41.038Z,4.4
2023-04-02T05:42:54.079Z,4.4
2023-04-02T05:44:07.090Z,4.4
2023-04-02T05:45:20.098Z,4.5
2023-04-02T05:46:33.122Z,4.5
2023-04-02T05:47:46.169Z,4.5
2023-04-02T05:48:59.086Z,4.5
2023-04-02T05:50:12.115Z,4.5
2023-04-02T05:51:25.098Z,4.3
2023-04-02T05:52:38.106Z,4.3
2023-04-02T05:53:51.225Z,4.3
2023-04-02T05:55:04.055Z,4.3
2023-04-02T05:56:17.105Z,4.3
2023-04-02T05:57:42.082Z,4.3
2023-04-02T05:58:45.446Z,4.3
2023-04-02T05:59:56.088Z,4.3
2023-04-02T06:01:09.073Z,4.3
2023-04-02T06:02:21.832Z,4.3
2023-04-02T06:03:35.160Z,4.3
2023-04-02T06:04:48.145Z,4.3
2023-04-02T06:06:01.087Z,4.3
2023-04-02T06:07:14.073Z,4.2
2023-04-02T06:08:27.076Z,4.2
2023-04-02T06:09:40.099Z,4.2
2023-04-02T06:10:53.052Z,4.2
2023-04-02T06:12:06.085Z,4.2
2023-04-02T06:13:18.783Z,4.2
2023-04-02T06:14:32.106Z,4.2
2023-04-02T06:15:47.225Z,4.2
2023-04-02T06:16:58.175Z,4.2
2023-04-02T06:18:11.053Z,4.2
2023-04-02T06:19:24.094Z,4.2
2023-04-02T06:20:37.084Z,4.2
2023-04-02T06:21:50.259Z,4.2
2023-04-02T06:23:03.453Z,4.2
2023-04-02T06:24:16.127Z,4.2
2023-04-02T06:25:29.095Z,4.2
2023-04-02T06:26:42.182Z,4.2
2023-04-02T06:27:54.976Z,4.2
2023-04-02T06:29:08.197Z,4.2
2023-04-02T06:30:21.139Z,4.2
2023-04-02T06:31:34.117Z,4.2
2023-04-02T06:32:47.639Z,4.2
2023-04-02T06:34:00.165Z,4.2
2023-04-02T06:35:13.116Z,4.2
2023-04-02T06:36:26.123Z,4.2
2023-04-02T06:37:39.074Z,4.2
2023-04-02T06:38:52.152Z,4.2
2023-04-02T06:40:05.174Z,4.2
2023-04-02T06:41:18.208Z,4.2
2023-04-02T06:42:31.129Z,4.2
2023-04-02T06:43:44.109Z,4.2
2023-04-02T06:44:57.076Z,4.2
2023-04-02T06:46:10.201Z,4.2
2023-04-02T06:47:23.178Z,4.2
2023-04-02T06:48:36.301Z,4.2
2023-04-02T06:49:49.175Z,4.2
2023-04-02T06:51:02.135Z,4.2
2023-04-02T06:52:15.133Z,4.2
2023-04-02T06:53:28.212Z,4.2
2023-04-02T06:54:41.251Z,4.2
2023-04-02T06:55:54.110Z,4.2
2023-04-02T06:57:07.233Z,4.2
2023-04-02T06:58:20.147Z,4.2
2023-04-02T06:59:33.157Z,4.2
2023-04-02T07:00:46.193Z,4.2
2023-04-02T07:01:59.200Z,4.2
2023-04-02T07:03:12.151Z,4.2
2023-04-02T07:04:25.161Z,4.2
2023-04-02T07:05:38.875Z,4.2
2023-04-02T07:06:51.176Z,4.2
2023-04-02T07:08:04.129Z,4.2
2023-04-02T07:09:17.198Z,4.1
2023-04-02T07:10:30.139Z,4.1
2023-04-02T07:11:43.186Z,4.1
2023-04-02T07:12:56.161Z,4.1
2023-04-02T07:14:09.151Z,4.1
2023-04-02T07:15:22.346Z,4.1
2023-04-02T07:16:35.269Z,4.2
2023-04-02T07:17:48.209Z,4.1
2023-04-02T07:19:01.205Z,4.1
2023-04-02T07:20:14.155Z,4.1
2023-04-02T07:21:27.298Z,4.2
2023-04-02T07:22:40.158Z,4.3
2023-04-02T07:23:53.225Z,4.3
2023-04-02T07:25:06.353Z,4.3
2023-04-02T07:26:19.784Z,4.4
2023-04-02T07:27:32.192Z,4.5
2023-04-02T07:28:45.176Z,4.6
2023-04-02T07:29:58.179Z,4.7
2023-04-02T07:31:11.012Z,4.7
2023-04-02T07:32:24.159Z,4.7
2023-04-02T07:33:37.248Z,4.6
2023-04-02T07:34:50.349Z,4.6
2023-04-02T07:36:03.230Z,4.6
2023-04-02T07:37:16.174Z,4.6
2023-04-02T07:38:29.206Z,4.4
2023-04-02T07:39:42.223Z,4.4
2023-04-02T07:40:55.206Z,4.4
2023-04-02T07:42:08.217Z,4.6
2023-04-02T07:43:21.185Z,4.5
2023-04-02T07:44:34.189Z,4.4
2023-04-02T07:45:47.189Z,4.4
2023-04-02T07:47:00.281Z,4.4
2023-04-02T07:48:13.511Z,4.4
2023-04-02T07:49:26.194Z,4.4
2023-04-02T07:50:39.340Z,4.4
2023-04-02T07:51:52.208Z,4.4
2023-04-02T07:53:05.228Z,4.4
2023-04-02T07:54:18.202Z,4.4
2023-04-02T07:55:31.232Z,4.4
2023-04-02T07:56:44.245Z,4.6
2023-04-02T07:57:57.204Z,4.6
2023-04-02T07:59:09.903Z,4.6
2023-04-02T08:00:23.211Z,4.6
2023-04-02T08:01:36.250Z,4.6
2023-04-02T08:02:49.103Z,4.6
2023-04-02T08:04:03.018Z,4.6
2023-04-02T08:05:15.201Z,4.7
2023-04-02T08:06:28.237Z,4.7
2023-04-02T08:07:41.193Z,4.8
2023-04-02T08:08:54.102Z,4.8
2023-04-02T08:10:07.529Z,4.9
2023-04-02T08:11:20.229Z,4.9
2023-04-02T08:12:33.216Z,4.9
2023-04-02T08:13:46.257Z,4.9
2023-04-02T08:14:59.183Z,4.9
2023-04-02T08:16:12.252Z,4.9
2023-04-02T08:17:25.268Z,4.9
2023-04-02T08:18:38.232Z,4.9
2023-04-02T08:19:54.548Z,4.9
2023-04-02T08:21:04.391Z,4.9
2023-04-02T08:22:17.217Z,4.9
2023-04-02T08:23:30.234Z,4.9
2023-04-02T08:24:43.384Z,4.8
2023-04-02T08:25:56.240Z,4.8
2023-04-02T08:27:09.247Z,4.8
2023-04-02T08:28:22.243Z,4.8
2023-04-02T08:29:35.276Z,4.8
2023-04-02T08:30:48.410Z,4.8
2023-04-02T08:32:01.340Z,4.8
2023-04-02T08:33:14.239Z,4.8
2023-04-02T08:34:27.332Z,4.8
2023-04-02T08:35:40.524Z,4.8
2023-04-02T08:36:52.932Z,4.8
2023-04-02T08:38:06.237Z,4.8
2023-04-02T08:39:19.258Z,4.8
2023-04-02T08:40:32.277Z,4.8
2023-04-02T08:41:45.256Z,4.8
2023-04-02T08:42:58.239Z,4.8
2023-04-02T08:44:11.845Z,4.8
2023-04-02T08:45:25.546Z,4.8
2023-04-02T08:46:37.285Z,4.8
2023-04-02T08:47:49.958Z,4.8
2023-04-02T08:49:03.253Z,4.8
2023-04-02T08:50:16.248Z,4.8
2023-04-02T08:51:29.264Z,4.8
2023-04-02T08:52:42.259Z,4.8
2023-04-02T08:53:55.399Z,4.9
2023-04-02T08:55:08.243Z,4.9
2023-04-02T08:56:21.254Z,4.9
2023-04-02T08:57:34.343Z,5
2023-04-02T08:58:47.403Z,5.1
2023-04-02T09:00:00.796Z,5.1
2023-04-02T09:01:13.265Z,5
2023-04-02T09:02:26.256Z,5.2
2023-04-02T09:03:39.255Z,5.2
2023-04-02T09:04:52.269Z,5.3
2023-04-02T09:06:05.252Z,5.3
2023-04-02T09:07:17.971Z,5.3
2023-04-02T09:08:31.293Z,5.3
2023-04-02T09:09:44.259Z,5.4
2023-04-02T09:10:57.281Z,5.4
2023-04-02T09:12:10.233Z,5.4
2023-04-02T09:13:23.281Z,5.4
2023-04-02T09:14:36.279Z,5.4
2023-04-02T09:15:49.285Z,5.4
2023-04-02T09:17:02.285Z,5.4
2023-04-02T09:18:15.292Z,5.6
2023-04-02T09:19:28.259Z,5.6
2023-04-02T09:20:41.448Z,5.7
2023-04-02T09:21:54.494Z,5.7
2023-04-02T09:23:07.652Z,5.7
2023-04-02T09:24:20.305Z,5.7
2023-04-02T09:25:33.549Z,5.8
2023-04-02T09:26:46.142Z,5.8
2023-04-02T09:27:59.271Z,5.8
2023-04-02T09:29:12.330Z,5.8
2023-04-02T09:30:25.273Z,5.9
2023-04-02T09:31:38.444Z,6.1
2023-04-02T09:32:51.352Z,6.1
2023-04-02T09:34:04.284Z,6.2
2023-04-02T09:35:25.235Z,6.2
2023-04-02T09:36:30.282Z,6.3
2023-04-02T09:37:43.223Z,6.4
2023-04-02T09:38:56.265Z,6.4
2023-04-02T09:40:09.243Z,6.4
2023-04-02T09:41:22.201Z,6.5
2023-04-02T09:42:35.212Z,6.4
2023-04-02T09:43:48.232Z,6.4
2023-04-02T09:45:01.687Z,6.4
2023-04-02T09:46:14.225Z,6.6
2023-04-02T09:47:27.249Z,6.6
2023-04-02T09:48:40.216Z,6.6
2023-04-02T09:49:53.336Z,6.6
2023-04-02T09:51:06.384Z,6.4
2023-04-02T09:52:19.202Z,6.4
2023-04-02T09:53:32.234Z,6.4
2023-04-02T09:54:45.342Z,6.4
2023-04-02T09:55:58.205Z,6.5
2023-04-02T09:57:11.240Z,6.6
2023-04-02T09:58:24.231Z,6.6
2023-04-02T09:59:37.212Z,6.6
2023-04-02T10:00:50.596Z,6.6
2023-04-02T10:02:03.330Z,6.6
2023-04-02T10:03:16.215Z,6.8
2023-04-02T10:04:29.254Z,6.8
2023-04-02T10:05:42.233Z,6.7
2023-04-02T10:08:08.075Z,6.8
2023-04-02T10:09:20.994Z,6.8
2023-04-02T10:11:47.107Z,7
2023-04-02T10:13:00.033Z,7
2023-04-02T10:14:13.060Z,7
2023-04-02T10:16:39.573Z,7.2
2023-04-02T10:20:17.965Z,7.2
2023-04-02T10:33:41.157Z,7.7
2023-04-02T10:54:22.304Z,7.7
2023-04-02T10:55:35.307Z,7.7
2023-04-02T10:56:51.262Z,7.7
2023-04-02T10:58:01.287Z,7.8
2023-04-02T10:59:14.240Z,7.8
2023-04-02T11:00:27.256Z,7.8
2023-04-02T11:01:40.257Z,7.8
2023-04-02T11:02:53.312Z,7.7
2023-04-02T11:04:06.267Z,7.8
2023-04-02T11:05:19.235Z,7.8
2023-04-02T11:06:32.370Z,7.7
2023-04-02T11:07:45.306Z,7.7
2023-04-02T11:08:58.359Z,7.7
2023-04-02T11:10:11.155Z,7.8
2023-04-02T11:11:24.234Z,7.8
2023-04-02T11:12:41.471Z,7.8
2023-04-02T11:13:50.220Z,7.8
2023-04-02T11:15:03.429Z,7.9
2023-04-02T11:16:16.381Z,7.8
2023-04-02T11:17:29.473Z,7.7
2023-04-02T11:18:42.268Z,7.8
2023-04-02T11:19:55.284Z,7.7
2023-04-02T11:21:08.263Z,7.7
2023-04-02T11:22:21.401Z,7.7
2023-04-02T11:23:34.252Z,7.7
2023-04-02T11:24:47.451Z,7.7
2023-04-02T11:26:00.220Z,7.7
2023-04-02T11:27:13.435Z,7.7
2023-04-02T11:28:26.274Z,7.8
2023-04-02T11:29:39.263Z,7.8
2023-04-02T11:30:52.597Z,7.8
2023-04-02T11:32:05.255Z,7.8
2023-04-02T11:33:20.908Z,7.8
2023-04-02T11:34:31.426Z,7.8
2023-04-02T11:35:44.426Z,7.9
2023-04-02T11:36:57.274Z,7.9
2023-04-02T11:38:10.259Z,7.7
2023-04-02T11:39:23.226Z,7.8
2023-04-02T11:40:36.335Z,7.8
2023-04-02T11:41:49.267Z,7.7
2023-04-02T11:43:02.290Z,7.7
2023-04-02T11:44:15.290Z,7.7
2023-04-02T11:45:28.418Z,7.5
2023-04-02T11:46:41.303Z,7.5
2023-04-02T11:47:54.267Z,7.5
2023-04-02T11:49:07.272Z,7.5
2023-04-02T11:50:20.140Z,7.6
2023-04-02T11:51:33.327Z,7.4
2023-04-02T11:52:46.345Z,7.4
2023-04-02T11:53:59.260Z,7.4
2023-04-02T11:55:12.450Z,7.4
2023-04-02T11:56:25.278Z,7.5
2023-04-02T11:57:38.310Z,7.6
2023-04-02T11:58:51.146Z,7.6
2023-04-02T12:00:04.253Z,7.5
2023-04-02T12:01:17.324Z,7.6
2023-04-02T12:02:30.331Z,7.5
2023-04-02T12:03:43.274Z,7.5
2023-04-02T12:04:56.287Z,7.5
2023-04-02T12:06:09.347Z,7.6
2023-04-02T12:07:22.268Z,7.6
2023-04-02T12:08:41.862Z,7.6
2023-04-02T12:09:48.311Z,7.7
2023-04-02T12:11:01.319Z,7.7
2023-04-02T12:12:14.262Z,7.7
2023-04-02T12:13:27.262Z,7.7
2023-04-02T12:14:40.354Z,7.7
2023-04-02T12:15:53.412Z,7.7
2023-04-02T12:17:07.817Z,7.5
2023-04-02T12:18:19.272Z,7.6
2023-04-02T12:19:32.293Z,7.5
2023-04-02T12:20:45.270Z,7.5
2023-04-02T12:21:58.292Z,7.5
2023-04-02T12:23:11.255Z,7.6
2023-04-02T12:24:24.304Z,7.6
2023-04-02T12:25:37.453Z,7.6
2023-04-02T12:26:50.270Z,7.7
2023-04-02T12:28:03.298Z,7.7
2023-04-02T12:29:16.234Z,7.7
2023-04-02T12:30:29.284Z,7.7
2023-04-02T12:31:42.270Z,7.7
2023-04-02T12:32:55.346Z,7.7
2023-04-02T12:34:08.290Z,7.8
2023-04-02T12:35:21.276Z,7.8
2023-04-02T12:36:34.263Z,7.9
2023-04-02T12:37:47.256Z,7.9
2023-04-02T12:39:00.973Z,7.9
2023-04-02T12:40:13.139Z,7.9
2023-04-02T12:41:26.298Z,7.9
2023-04-02T12:42:39.245Z,7.9
2023-04-02T12:43:52.261Z,7.9
2023-04-02T12:45:05.264Z,7.8
2023-04-02T12:46:18.551Z,7.8
2023-04-02T12:47:31.454Z,7.8
2023-04-02T12:48:44.286Z,7.8
2023-04-02T12:52:23.296Z,7.9
2023-04-02T12:53:36.288Z,7.9
2023-04-02T12:54:49.317Z,7.9
2023-04-02T12:56:02.388Z,7.9
2023-04-02T12:57:15.305Z,7.9
2023-04-02T12:58:28.350Z,7.9
2023-04-02T12:59:40.946Z,7.9
2023-04-02T13:00:54.306Z,8.1
2023-04-02T13:02:07.550Z,8.1
2023-04-02T13:03:20.443Z,8.1
2023-04-02T13:04:33.590Z,8.1
2023-04-02T13:05:46.622Z,8.1
2023-04-02T13:06:59.298Z,8.1
2023-04-02T13:08:12.307Z,8.2
2023-04-02T13:09:25.908Z,8.2
2023-04-02T13:10:38.408Z,8.2
2023-04-02T13:11:51.247Z,8.2
2023-04-02T13:13:04.246Z,8.2
2023-04-02T13:14:17.100Z,8.3
2023-04-02T13:15:30.279Z,8.4
2023-04-02T13:16:43.259Z,8.4
2023-04-02T13:17:56.327Z,8.4
2023-04-02T13:19:09.278Z,8.4
2023-04-02T13:20:22.244Z,8.4
2023-04-02T13:21:35.262Z,8.4
2023-04-02T13:22:48.342Z,8.4
2023-04-02T13:24:01.288Z,8.4
2023-04-02T13:25:14.103Z,8.4
2023-04-02T13:26:27.365Z,8.3
2023-04-02T13:27:40.244Z,8.3
2023-04-02T13:28:53.267Z,8.3
2023-04-02T13:30:06.255Z,8.3
2023-04-02T13:31:19.281Z,8.4
2023-04-02T13:32:32.243Z,8.3
2023-04-02T13:33:45.274Z,8.3
2023-04-02T13:34:58.268Z,8.2
2023-04-02T13:36:11.269Z,8.2
2023-04-02T13:37:24.436Z,8.4
2023-04-02T13:38:37.269Z,8.4
2023-04-02T13:39:50.278Z,8.2
2023-04-02T13:41:03.266Z,8.2
2023-04-02T13:42:16.124Z,8.2
2023-04-02T13:43:29.123Z,8.2
2023-04-02T13:44:42.132Z,8.1
2023-04-02T13:47:08.497Z,7.9
2023-04-02T13:48:21.286Z,7.9
2023-04-02T13:49:33.954Z,7.9
2023-04-02T13:50:47.387Z,7.9
2023-04-02T13:52:00.267Z,7.9
2023-04-02T13:53:13.311Z,7.9
2023-04-02T13:54:26.328Z,7.8
2023-04-02T13:55:39.241Z,7.8
2023-04-02T13:56:52.382Z,7.7
2023-04-02T13:58:05.420Z,7.7
2023-04-02T13:59:18.380Z,7.6
2023-04-02T14:00:31.260Z,7.4
2023-04-02T14:01:44.416Z,7.4
2023-04-02T14:02:57.308Z,7.3
2023-04-02T14:04:10.240Z,7.3
2023-04-02T14:05:23.386Z,7.2
2023-04-02T14:06:36.218Z,7
2023-04-02T14:07:49.310Z,7
2023-04-02T14:09:02.242Z,7.1
2023-04-02T14:10:15.251Z,7.1
2023-04-02T14:11:28.284Z,6.9
2023-04-02T14:12:41.216Z,6.9
2023-04-02T14:13:54.247Z,6.9
2023-04-02T14:15:07.220Z,6.9
2023-04-02T14:16:20.273Z,6.9
2023-04-02T14:17:33.398Z,6.8
2023-04-02T14:18:46.287Z,6.8
2023-04-02T14:19:59.270Z,6.8
2023-04-02T14:21:12.287Z,6.8
2023-04-02T14:22:25.298Z,6.8
2023-04-02T14:23:38.317Z,6.8
2023-04-02T14:24:51.288Z,6.8
2023-04-02T14:26:04.297Z,6.8
2023-04-02T14:27:17.285Z,6.7
2023-04-02T14:28:30.450Z,6.7
2023-04-02T14:29:43.783Z,6.7
2023-04-02T14:30:56.324Z,6.7
2023-04-02T14:32:09.273Z,6.7
2023-04-02T14:33:22.275Z,6.7
2023-04-02T14:34:35.264Z,6.7
2023-04-02T14:35:48.311Z,6.7
2023-04-02T14:37:01.189Z,6.7
2023-04-02T14:38:14.288Z,6.7
2023-04-02T14:39:27.286Z,6.7
2023-04-02T14:40:40.294Z,6.7
2023-04-02T14:41:53.358Z,6.7
2023-04-02T14:43:06.268Z,6.8
2023-04-02T14:44:19.283Z,6.8
2023-04-02T14:45:32.284Z,6.8
2023-04-02T14:46:45.400Z,6.8
2023-04-02T14:47:58.364Z,6.8
2023-04-02T14:49:11.269Z,6.9
2023-04-02T14:50:24.283Z,6.9
2023-04-02T14:51:37.295Z,6.9
2023-04-02T14:52:50.265Z,7.1
2023-04-02T14:54:03.320Z,7.1
2023-04-02T14:55:16.338Z,7.1
2023-04-02T14:56:29.311Z,7
2023-04-02T14:57:42.325Z,7
2023-04-02T14:58:55.324Z,7.2
2023-04-02T15:00:08.295Z,7.2
2023-04-02T15:01:21.266Z,7.2
2023-04-02T15:02:34.319Z,7.2
2023-04-02T15:03:47.341Z,7.2
2023-04-02T15:05:01.492Z,7.2
2023-04-02T15:06:13.290Z,7.2
2023-04-02T15:07:26.335Z,7.2
2023-04-02T15:08:39.173Z,7.2
2023-04-02T15:09:52.311Z,7.2
2023-04-02T15:11:08.189Z,7.2
2023-04-02T15:12:18.369Z,7.2
2023-04-02T15:13:31.340Z,7.3
2023-04-02T15:14:44.296Z,7.3
2023-04-02T15:15:57.361Z,7.3
2023-04-02T15:17:10.322Z,7.3
2023-04-02T15:18:23.326Z,7.3
2023-04-02T15:19:36.625Z,7.3
2023-04-02T15:20:49.492Z,7.3
2023-04-02T15:22:06.065Z,7.3
2023-04-02T15:23:15.193Z,7.5
2023-04-02T15:24:28.358Z,7.5
2023-04-02T15:25:41.498Z,7.5
2023-04-02T15:26:54.586Z,7.5
2023-04-02T15:28:07.301Z,7.5
2023-04-02T15:29:28.655Z,7.5
2023-04-02T15:30:33.559Z,7.3
2023-04-02T15:31:46.807Z,7.3
2023-04-02T15:34:12.296Z,7.3
2023-04-02T15:35:25.192Z,7.3
2023-04-02T15:36:38.320Z,7.2
2023-04-02T15:37:51.312Z,7.2
2023-04-02T15:39:04.364Z,7.2
2023-04-02T15:40:17.280Z,7.1
2023-04-02T15:41:30.038Z,7.1
2023-04-02T15:42:43.703Z,7.1
2023-04-02T15:43:56.501Z,7.1
2023-04-02T15:45:09.327Z,6.9
2023-04-02T15:46:22.433Z,6.9
2023-04-02T15:47:36.777Z,6.9
2023-04-02T15:48:48.353Z,6.9
2023-04-02T15:50:01.304Z,7.1
2023-04-02T15:51:14.633Z,7.1
2023-04-02T15:52:27.626Z,7.1
2023-04-02T15:53:40.267Z,7.1
2023-04-02T15:54:53.249Z,7.1
2023-04-02T15:56:06.371Z,7.2
2023-04-02T15:57:19.283Z,7.2
2023-04-02T15:58:32.385Z,7.2
2023-04-02T15:59:45.294Z,7.2
2023-04-02T16:00:58.348Z,7.2
2023-04-02T16:02:11.464Z,7.2
2023-04-02T16:03:24.211Z,7.2
2023-04-02T16:04:37.395Z,7.1
2023-04-02T16:05:50.375Z,7.1
2023-04-02T16:07:03.362Z,7.1
2023-04-02T16:08:16.331Z,7.1
2023-04-02T16:09:29.261Z,7.1
2023-04-02T16:10:43.310Z,6.9
2023-04-02T16:11:55.342Z,6.9
2023-04-02T16:13:08.349Z,7
2023-04-02T16:14:21.238Z,7.1
2023-04-02T16:15:34.378Z,7.1
2023-04-02T16:16:47.417Z,7.1
2023-04-02T16:18:00.250Z,7.1
2023-04-02T16:19:15.732Z,7.1
2023-04-02T16:20:26.346Z,7.1
2023-04-02T16:21:39.351Z,7.1
2023-04-02T16:22:59.832Z,7.1
2023-04-02T16:27:44.388Z,7.1
2023-04-02T16:28:57.367Z,7.1
2023-04-02T16:30:10.351Z,7.1
2023-04-02T16:31:23.496Z,6.9
2023-04-02T16:32:37.076Z,7.1
2023-04-02T16:33:49.571Z,7.1
2023-04-02T16:36:15.570Z,7.1
2023-04-02T16:37:28.341Z,7.1
2023-04-02T16:38:41.358Z,7.1
2023-04-02T16:39:54.254Z,7.1
2023-04-02T16:41:09.157Z,7.1
2023-04-02T16:42:20.409Z,7.1
2023-04-02T16:43:33.379Z,6.9
2023-04-02T16:44:46.304Z,6.9
2023-04-02T16:45:59.368Z,6.9
2023-04-02T16:47:12.592Z,6.9
2023-04-02T16:48:25.384Z,6.9
2023-04-02T16:49:38.418Z,6.8
2023-04-02T16:50:51.241Z,6.8
2023-04-02T16:52:04.291Z,6.8
2023-04-02T16:53:17.518Z,6.7
2023-04-02T16:54:30.635Z,6.7
2023-04-02T16:55:43.352Z,6.6
2023-04-02T16:56:56.412Z,6.5
2023-04-02T16:58:09.760Z,6.5
2023-04-02T16:59:22.064Z,6.4
2023-04-02T17:00:35.502Z,6.4
2023-04-02T17:01:48.393Z,6.4
2023-04-02T17:03:01.304Z,6.4
2023-04-02T17:04:14.537Z,6.3
2023-04-02T17:05:27.398Z,6.3
2023-04-02T17:06:40.423Z,6.3
2023-04-02T17:07:53.463Z,6.1
2023-04-02T17:09:06.375Z,6.1
2023-04-02T17:10:19.721Z,6.2
2023-04-02T17:11:32.422Z,6.1
2023-04-02T17:12:45.460Z,6.1
2023-04-02T17:13:59.059Z,6.1
2023-04-02T17:15:17.157Z,6.1
2023-04-02T17:16:24.430Z,6.1
2023-04-02T17:17:37.498Z,6.1
2023-04-02T17:18:51.125Z,6.1
2023-04-02T17:20:03.277Z,6.1
2023-04-02T17:21:16.385Z,6.1
2023-04-02T17:22:29.268Z,6.1
2023-04-02T17:23:53.146Z,6.1
2023-04-02T17:24:55.588Z,6.1
2023-04-02T17:26:09.041Z,6.1
2023-04-02T17:27:21.420Z,6.1
2023-04-02T17:28:34.385Z,6.1
2023-04-02T17:29:47.422Z,6.1
2023-04-02T17:31:00.245Z,6.1
2023-04-02T17:32:13.399Z,6.1
2023-04-02T17:33:26.737Z,6.1
2023-04-02T17:34:40.169Z,6.1
2023-04-02T17:35:52.469Z,6.1